This is the latest recevied weather packets stored in our database for station/object K6POO-1. If no packets are shown the sender has not sent any weather packets the latest 10 day(s).
| Time | Temp. | Humidity | Pressure | Rain* | Wind** | Luminosity | Snow |
|---|---|---|---|---|---|---|---|
| 1788048065 | 18.89° C | 70% | 1014.2 hPa | 0 mm | - | 319 W/m² | - |
| 1788047754 | 18.33° C | 71% | 1014 hPa | 0 mm | - | 330 W/m² | - |
| 1788047454 | 18.89° C | 69% | 1014.1 hPa | 0 mm | - | 345 W/m² | - |
| 1788047150 | 18.89° C | 70% | 1014.1 hPa | 0 mm | - | 366 W/m² | - |
| 1788046850 | 18.89° C | 69% | 1014.2 hPa | 0 mm | - | 385 W/m² | - |
| 1788046548 | 18.89° C | 70% | 1014.1 hPa | 0 mm | - | 402 W/m² | - |
| 1788046244 | 18.33° C | 71% | 1014.2 hPa | 0 mm | - | 421 W/m² | - |
| 1788045942 | 18.33° C | 71% | 1014.1 hPa | 0 mm | - | 441 W/m² | - |
| 1788045638 | 18.33° C | 70% | 1014.4 hPa | 0 mm | - | 460 W/m² | - |
| 1788045332 | 18.33° C | 71% | 1014.4 hPa | 0 mm | - | 481 W/m² | - |
| 1788045028 | 18.33° C | 71% | 1014.5 hPa | 0 mm | - | 498 W/m² | - |
| 1788044735 | 18.89° C | 69% | 1014.4 hPa | 0 mm | - | 510 W/m² | - |
| 1788044422 | 19.44° C | 68% | 1014.4 hPa | 0 mm | - | 530 W/m² | - |
| 1788044122 | 19.44° C | 66% | 1014.3 hPa | 0 mm | - | 549 W/m² | - |
| 1788043818 | 20° C | 64% | 1014.3 hPa | 0 mm | - | 565 W/m² | - |
| 1788043513 | 20.56° C | 63% | 1014.3 hPa | 0 mm | - | 583 W/m² | - |
| 1788043212 | 20.56° C | 61% | 1014.1 hPa | 0 mm | - | 603 W/m² | - |
| 1788042908 | 21.11° C | 60% | 1014.3 hPa | 0 mm | - | 619 W/m² | - |
| 1788042603 | 21.11° C | 60% | 1014.2 hPa | 0 mm | - | 634 W/m² | - |
| 1788042302 | 20.56° C | 61% | 1014.4 hPa | 0 mm | - | 649 W/m² | - |
| 1788041998 | 21.11° C | 60% | 1014.3 hPa | 0 mm | - | 671 W/m² | - |
| 1788041693 | 21.11° C | 57% | 1014.3 hPa | 0 mm | - | 687 W/m² | - |
| 1788041388 | 21.11° C | 56% | 1014.5 hPa | 0 mm | - | 709 W/m² | - |
| 1788041087 | 20.56° C | 59% | 1014.6 hPa | 0 mm | - | 725 W/m² | - |
| 1788040786 | 20.56° C | 59% | 1014.8 hPa | 0 mm | - | 738 W/m² | - |
* Rain latest hour (hover to see other rain measurements)
** Current wind speed in m/s (hover to see current wind gust speed)